sensor_id;sensor_type;location;lat;lon;timestamp;P1;durP1;ratioP1;P2;durP2;ratioP2
51286;SDS011;37364;46.974;18.916;2022-12-29T00:01:43;35.72;;;20.30;;
51286;SDS011;37364;46.974;18.916;2022-12-29T00:04:16;37.72;;;17.90;;
51286;SDS011;37364;46.974;18.916;2022-12-29T00:06:47;34.38;;;17.90;;
51286;SDS011;37364;46.974;18.916;2022-12-29T00:09:19;33.88;;;19.80;;
51286;SDS011;37364;46.974;18.916;2022-12-29T00:11:50;30.52;;;19.33;;
51286;SDS011;37364;46.974;18.916;2022-12-29T00:14:21;33.72;;;21.15;;
51286;SDS011;37364;46.974;18.916;2022-12-29T00:17:05;31.37;;;19.37;;
51286;SDS011;37364;46.974;18.916;2022-12-29T00:19:40;33.90;;;19.65;;
51286;SDS011;37364;46.974;18.916;2022-12-29T00:22:25;28.17;;;20.10;;
51286;SDS011;37364;46.974;18.916;2022-12-29T00:25:09;38.50;;;19.30;;
51286;SDS011;37364;46.974;18.916;2022-12-29T00:27:55;34.53;;;20.02;;
51286;SDS011;37364;46.974;18.916;2022-12-29T00:30:39;31.70;;;19.20;;
51286;SDS011;37364;46.974;18.916;2022-12-29T00:33:25;29.00;;;18.27;;
51286;SDS011;37364;46.974;18.916;2022-12-29T00:36:15;34.17;;;19.55;;
51286;SDS011;37364;46.974;18.916;2022-12-29T00:38:48;31.50;;;20.15;;
51286;SDS011;37364;46.974;18.916;2022-12-29T00:41:34;34.50;;;19.33;;
51286;SDS011;37364;46.974;18.916;2022-12-29T00:44:18;29.48;;;18.55;;
51286;SDS011;37364;46.974;18.916;2022-12-29T00:46:49;30.77;;;20.42;;
51286;SDS011;37364;46.974;18.916;2022-12-29T00:49:20;41.33;;;22.10;;
51286;SDS011;37364;46.974;18.916;2022-12-29T00:52:03;30.02;;;18.65;;
51286;SDS011;37364;46.974;18.916;2022-12-29T00:54:37;33.53;;;20.25;;
51286;SDS011;37364;46.974;18.916;2022-12-29T00:57:09;38.15;;;22.02;;
51286;SDS011;37364;46.974;18.916;2022-12-29T00:59:41;37.13;;;21.88;;
51286;SDS011;37364;46.974;18.916;2022-12-29T01:02:15;42.25;;;22.90;;
51286;SDS011;37364;46.974;18.916;2022-12-29T01:04:47;41.75;;;22.92;;
51286;SDS011;37364;46.974;18.916;2022-12-29T01:07:21;47.92;;;25.50;;
51286;SDS011;37364;46.974;18.916;2022-12-29T01:09:52;46.42;;;25.02;;
51286;SDS011;37364;46.974;18.916;2022-12-29T01:12:37;52.33;;;26.50;;
51286;SDS011;37364;46.974;18.916;2022-12-29T01:15:12;48.50;;;26.17;;
51286;SDS011;37364;46.974;18.916;2022-12-29T01:17:45;42.97;;;26.05;;
51286;SDS011;37364;46.974;18.916;2022-12-29T01:20:17;49.30;;;24.95;;
51286;SDS011;37364;46.974;18.916;2022-12-29T01:22:50;54.00;;;24.23;;
51286;SDS011;37364;46.974;18.916;2022-12-29T01:25:22;66.50;;;26.95;;
51286;SDS011;37364;46.974;18.916;2022-12-29T01:27:53;58.00;;;27.85;;
51286;SDS011;37364;46.974;18.916;2022-12-29T01:30:25;50.28;;;27.08;;
51286;SDS011;37364;46.974;18.916;2022-12-29T01:32:57;45.40;;;27.05;;
51286;SDS011;37364;46.974;18.916;2022-12-29T01:35:29;49.38;;;26.73;;
51286;SDS011;37364;46.974;18.916;2022-12-29T01:38:03;44.47;;;25.85;;
51286;SDS011;37364;46.974;18.916;2022-12-29T01:40:42;44.42;;;23.92;;
51286;SDS011;37364;46.974;18.916;2022-12-29T01:43:14;60.72;;;28.13;;
51286;SDS011;37364;46.974;18.916;2022-12-29T01:45:48;54.75;;;27.98;;
51286;SDS011;37364;46.974;18.916;2022-12-29T01:50:52;51.20;;;27.00;;
51286;SDS011;37364;46.974;18.916;2022-12-29T01:53:39;44.97;;;24.77;;
51286;SDS011;37364;46.974;18.916;2022-12-29T01:56:11;44.80;;;25.10;;
51286;SDS011;37364;46.974;18.916;2022-12-29T01:58:51;55.22;;;28.83;;
51286;SDS011;37364;46.974;18.916;2022-12-29T02:01:30;57.17;;;30.98;;
51286;SDS011;37364;46.974;18.916;2022-12-29T02:04:02;62.65;;;31.48;;
51286;SDS011;37364;46.974;18.916;2022-12-29T02:06:40;53.58;;;30.42;;
51286;SDS011;37364;46.974;18.916;2022-12-29T02:09:17;53.50;;;29.50;;
51286;SDS011;37364;46.974;18.916;2022-12-29T02:11:50;46.33;;;26.98;;
51286;SDS011;37364;46.974;18.916;2022-12-29T02:14:22;65.05;;;32.10;;
51286;SDS011;37364;46.974;18.916;2022-12-29T02:16:58;54.83;;;30.67;;
51286;SDS011;37364;46.974;18.916;2022-12-29T02:22:42;56.67;;;28.95;;
51286;SDS011;37364;46.974;18.916;2022-12-29T02:28:22;49.53;;;25.42;;
51286;SDS011;37364;46.974;18.916;2022-12-29T02:31:18;43.05;;;25.23;;
51286;SDS011;37364;46.974;18.916;2022-12-29T02:33:59;49.65;;;25.88;;
51286;SDS011;37364;46.974;18.916;2022-12-29T02:36:40;44.97;;;23.45;;
51286;SDS011;37364;46.974;18.916;2022-12-29T02:39:19;45.72;;;24.92;;
51286;SDS011;37364;46.974;18.916;2022-12-29T02:42:02;37.17;;;24.02;;
51286;SDS011;37364;46.974;18.916;2022-12-29T02:44:42;36.03;;;21.77;;
51286;SDS011;37364;46.974;18.916;2022-12-29T02:47:28;41.13;;;24.27;;
51286;SDS011;37364;46.974;18.916;2022-12-29T02:50:08;46.28;;;25.15;;
51286;SDS011;37364;46.974;18.916;2022-12-29T02:52:46;44.63;;;25.23;;
51286;SDS011;37364;46.974;18.916;2022-12-29T02:55:20;51.75;;;27.13;;
51286;SDS011;37364;46.974;18.916;2022-12-29T02:58:02;46.40;;;27.30;;
51286;SDS011;37364;46.974;18.916;2022-12-29T03:00:48;50.08;;;28.10;;
51286;SDS011;37364;46.974;18.916;2022-12-29T03:03:43;44.47;;;25.27;;
51286;SDS011;37364;46.974;18.916;2022-12-29T03:06:30;44.10;;;26.08;;
51286;SDS011;37364;46.974;18.916;2022-12-29T03:09:10;50.17;;;25.17;;
51286;SDS011;37364;46.974;18.916;2022-12-29T03:11:51;44.60;;;26.75;;
51286;SDS011;37364;46.974;18.916;2022-12-29T03:14:46;48.80;;;25.50;;
51286;SDS011;37364;46.974;18.916;2022-12-29T03:20:26;43.40;;;26.77;;
51286;SDS011;37364;46.974;18.916;2022-12-29T03:23:07;49.92;;;26.70;;
51286;SDS011;37364;46.974;18.916;2022-12-29T03:25:40;45.97;;;24.50;;
51286;SDS011;37364;46.974;18.916;2022-12-29T03:28:20;42.25;;;24.73;;
51286;SDS011;37364;46.974;18.916;2022-12-29T03:30:54;38.78;;;25.40;;
51286;SDS011;37364;46.974;18.916;2022-12-29T03:33:28;46.42;;;25.60;;
51286;SDS011;37364;46.974;18.916;2022-12-29T03:36:06;39.30;;;24.73;;
51286;SDS011;37364;46.974;18.916;2022-12-29T03:38:45;36.65;;;25.10;;
51286;SDS011;37364;46.974;18.916;2022-12-29T03:41:22;41.72;;;24.60;;
51286;SDS011;37364;46.974;18.916;2022-12-29T03:43:59;43.58;;;25.20;;
51286;SDS011;37364;46.974;18.916;2022-12-29T03:46:31;43.72;;;26.90;;
51286;SDS011;37364;46.974;18.916;2022-12-29T03:49:03;37.67;;;24.45;;
51286;SDS011;37364;46.974;18.916;2022-12-29T03:51:38;41.78;;;24.83;;
51286;SDS011;37364;46.974;18.916;2022-12-29T03:54:10;37.13;;;26.10;;
51286;SDS011;37364;46.974;18.916;2022-12-29T03:56:44;36.38;;;25.15;;
51286;SDS011;37364;46.974;18.916;2022-12-29T03:59:20;49.17;;;26.00;;
51286;SDS011;37364;46.974;18.916;2022-12-29T04:01:52;40.78;;;25.90;;
51286;SDS011;37364;46.974;18.916;2022-12-29T04:04:23;39.95;;;26.38;;
51286;SDS011;37364;46.974;18.916;2022-12-29T04:06:58;42.20;;;26.13;;
51286;SDS011;37364;46.974;18.916;2022-12-29T04:09:30;44.15;;;25.45;;
51286;SDS011;37364;46.974;18.916;2022-12-29T04:12:02;47.95;;;26.27;;
51286;SDS011;37364;46.974;18.916;2022-12-29T04:14:35;45.15;;;26.80;;
51286;SDS011;37364;46.974;18.916;2022-12-29T04:17:06;39.63;;;25.48;;
51286;SDS011;37364;46.974;18.916;2022-12-29T04:19:37;39.08;;;26.63;;
51286;SDS011;37364;46.974;18.916;2022-12-29T04:22:10;46.35;;;26.48;;
51286;SDS011;37364;46.974;18.916;2022-12-29T04:24:42;41.25;;;27.10;;
51286;SDS011;37364;46.974;18.916;2022-12-29T04:27:13;53.75;;;27.88;;
51286;SDS011;37364;46.974;18.916;2022-12-29T04:30:20;46.33;;;26.75;;
51286;SDS011;37364;46.974;18.916;2022-12-29T04:33:14;49.15;;;26.98;;
51286;SDS011;37364;46.974;18.916;2022-12-29T04:35:45;43.50;;;27.08;;
51286;SDS011;37364;46.974;18.916;2022-12-29T04:38:19;54.83;;;27.77;;
51286;SDS011;37364;46.974;18.916;2022-12-29T04:40:50;42.10;;;28.05;;
51286;SDS011;37364;46.974;18.916;2022-12-29T04:43:24;52.70;;;31.27;;
51286;SDS011;37364;46.974;18.916;2022-12-29T04:46:14;46.95;;;29.55;;
51286;SDS011;37364;46.974;18.916;2022-12-29T04:49:14;48.10;;;31.10;;
51286;SDS011;37364;46.974;18.916;2022-12-29T04:52:10;55.15;;;30.00;;
51286;SDS011;37364;46.974;18.916;2022-12-29T04:54:46;50.28;;;30.55;;
51286;SDS011;37364;46.974;18.916;2022-12-29T04:57:20;53.35;;;31.77;;
51286;SDS011;37364;46.974;18.916;2022-12-29T05:00:00;50.92;;;32.17;;
51286;SDS011;37364;46.974;18.916;2022-12-29T05:02:32;61.92;;;36.03;;
51286;SDS011;37364;46.974;18.916;2022-12-29T05:05:03;66.40;;;40.33;;
51286;SDS011;37364;46.974;18.916;2022-12-29T05:07:39;70.75;;;42.45;;
51286;SDS011;37364;46.974;18.916;2022-12-29T05:10:13;63.33;;;35.55;;
51286;SDS011;37364;46.974;18.916;2022-12-29T05:12:45;69.80;;;38.35;;
51286;SDS011;37364;46.974;18.916;2022-12-29T05:15:17;106.22;;;52.33;;
51286;SDS011;37364;46.974;18.916;2022-12-29T05:17:48;110.72;;;55.80;;
51286;SDS011;37364;46.974;18.916;2022-12-29T05:20:20;110.13;;;52.85;;
51286;SDS011;37364;46.974;18.916;2022-12-29T05:22:51;99.90;;;48.03;;
51286;SDS011;37364;46.974;18.916;2022-12-29T05:25:26;130.07;;;58.53;;
51286;SDS011;37364;46.974;18.916;2022-12-29T05:28:19;164.32;;;69.40;;
51286;SDS011;37364;46.974;18.916;2022-12-29T05:31:26;90.47;;;49.00;;
51286;SDS011;37364;46.974;18.916;2022-12-29T05:33:57;73.70;;;39.30;;
51286;SDS011;37364;46.974;18.916;2022-12-29T05:36:31;58.72;;;37.85;;
51286;SDS011;37364;46.974;18.916;2022-12-29T05:39:06;65.35;;;38.58;;
51286;SDS011;37364;46.974;18.916;2022-12-29T05:41:39;85.65;;;45.78;;
51286;SDS011;37364;46.974;18.916;2022-12-29T05:44:42;89.25;;;47.33;;
51286;SDS011;37364;46.974;18.916;2022-12-29T05:47:25;109.45;;;58.80;;
51286;SDS011;37364;46.974;18.916;2022-12-29T05:50:14;119.30;;;65.28;;
51286;SDS011;37364;46.974;18.916;2022-12-29T05:53:04;66.50;;;44.47;;
51286;SDS011;37364;46.974;18.916;2022-12-29T05:55:37;85.55;;;48.25;;
51286;SDS011;37364;46.974;18.916;2022-12-29T05:58:18;61.97;;;42.28;;
51286;SDS011;37364;46.974;18.916;2022-12-29T06:00:51;72.97;;;43.40;;
51286;SDS011;37364;46.974;18.916;2022-12-29T06:03:22;81.03;;;52.28;;
51286;SDS011;37364;46.974;18.916;2022-12-29T06:05:54;93.70;;;59.22;;
51286;SDS011;37364;46.974;18.916;2022-12-29T06:08:28;80.43;;;54.50;;
51286;SDS011;37364;46.974;18.916;2022-12-29T06:11:01;96.93;;;54.05;;
51286;SDS011;37364;46.974;18.916;2022-12-29T06:13:35;91.38;;;53.42;;
51286;SDS011;37364;46.974;18.916;2022-12-29T06:16:07;99.50;;;55.25;;
51286;SDS011;37364;46.974;18.916;2022-12-29T06:18:39;90.35;;;54.80;;
51286;SDS011;37364;46.974;18.916;2022-12-29T06:21:10;88.97;;;52.10;;
51286;SDS011;37364;46.974;18.916;2022-12-29T06:23:41;113.35;;;61.33;;
51286;SDS011;37364;46.974;18.916;2022-12-29T06:26:12;116.45;;;57.75;;
51286;SDS011;37364;46.974;18.916;2022-12-29T06:29:01;114.03;;;59.75;;
51286;SDS011;37364;46.974;18.916;2022-12-29T06:31:34;124.60;;;63.75;;
51286;SDS011;37364;46.974;18.916;2022-12-29T06:34:06;144.77;;;65.05;;
51286;SDS011;37364;46.974;18.916;2022-12-29T06:36:37;144.25;;;68.18;;
51286;SDS011;37364;46.974;18.916;2022-12-29T06:39:10;142.27;;;68.78;;
51286;SDS011;37364;46.974;18.916;2022-12-29T06:41:51;156.13;;;69.28;;
51286;SDS011;37364;46.974;18.916;2022-12-29T06:44:42;149.65;;;68.20;;
51286;SDS011;37364;46.974;18.916;2022-12-29T06:47:13;166.15;;;73.25;;
51286;SDS011;37364;46.974;18.916;2022-12-29T06:49:44;148.85;;;72.53;;
51286;SDS011;37364;46.974;18.916;2022-12-29T06:52:16;151.25;;;70.85;;
51286;SDS011;37364;46.974;18.916;2022-12-29T06:54:47;133.82;;;66.57;;
51286;SDS011;37364;46.974;18.916;2022-12-29T06:57:18;141.15;;;63.72;;
51286;SDS011;37364;46.974;18.916;2022-12-29T06:59:52;133.00;;;67.80;;
51286;SDS011;37364;46.974;18.916;2022-12-29T07:02:24;130.20;;;65.15;;
51286;SDS011;37364;46.974;18.916;2022-12-29T07:04:56;125.80;;;62.05;;
51286;SDS011;37364;46.974;18.916;2022-12-29T07:07:27;122.47;;;65.65;;
51286;SDS011;37364;46.974;18.916;2022-12-29T07:09:58;119.63;;;64.25;;
51286;SDS011;37364;46.974;18.916;2022-12-29T07:12:29;128.45;;;63.35;;
51286;SDS011;37364;46.974;18.916;2022-12-29T07:15:03;118.57;;;64.38;;
51286;SDS011;37364;46.974;18.916;2022-12-29T07:17:37;122.05;;;65.57;;
51286;SDS011;37364;46.974;18.916;2022-12-29T07:20:09;113.72;;;64.82;;
51286;SDS011;37364;46.974;18.916;2022-12-29T07:22:40;108.63;;;61.95;;
51286;SDS011;37364;46.974;18.916;2022-12-29T07:25:12;125.35;;;67.75;;
51286;SDS011;37364;46.974;18.916;2022-12-29T07:27:43;122.57;;;73.88;;
51286;SDS011;37364;46.974;18.916;2022-12-29T07:30:17;107.43;;;63.83;;
51286;SDS011;37364;46.974;18.916;2022-12-29T07:32:49;90.68;;;54.70;;
51286;SDS011;37364;46.974;18.916;2022-12-29T07:35:20;89.43;;;54.38;;
51286;SDS011;37364;46.974;18.916;2022-12-29T07:37:51;101.07;;;54.83;;
51286;SDS011;37364;46.974;18.916;2022-12-29T07:40:22;100.05;;;57.97;;
51286;SDS011;37364;46.974;18.916;2022-12-29T07:42:52;115.55;;;63.95;;
51286;SDS011;37364;46.974;18.916;2022-12-29T07:45:35;98.60;;;59.88;;
51286;SDS011;37364;46.974;18.916;2022-12-29T07:48:09;107.38;;;61.58;;
51286;SDS011;37364;46.974;18.916;2022-12-29T07:50:40;89.28;;;53.75;;
51286;SDS011;37364;46.974;18.916;2022-12-29T07:53:13;75.93;;;52.67;;
51286;SDS011;37364;46.974;18.916;2022-12-29T07:55:44;87.90;;;53.55;;
51286;SDS011;37364;46.974;18.916;2022-12-29T07:58:15;83.90;;;55.65;;
51286;SDS011;37364;46.974;18.916;2022-12-29T08:00:52;81.78;;;54.05;;
51286;SDS011;37364;46.974;18.916;2022-12-29T08:03:24;79.60;;;51.90;;
51286;SDS011;37364;46.974;18.916;2022-12-29T08:05:56;89.35;;;51.25;;
51286;SDS011;37364;46.974;18.916;2022-12-29T08:08:27;75.82;;;49.15;;
51286;SDS011;37364;46.974;18.916;2022-12-29T08:10:58;78.68;;;48.28;;
51286;SDS011;37364;46.974;18.916;2022-12-29T08:13:29;65.57;;;45.72;;
51286;SDS011;37364;46.974;18.916;2022-12-29T08:16:04;73.80;;;50.17;;
51286;SDS011;37364;46.974;18.916;2022-12-29T08:18:37;76.05;;;47.83;;
51286;SDS011;37364;46.974;18.916;2022-12-29T08:21:08;71.00;;;47.65;;
51286;SDS011;37364;46.974;18.916;2022-12-29T08:23:41;71.82;;;47.10;;
51286;SDS011;37364;46.974;18.916;2022-12-29T08:26:12;76.32;;;47.88;;
51286;SDS011;37364;46.974;18.916;2022-12-29T08:28:44;69.70;;;46.33;;
51286;SDS011;37364;46.974;18.916;2022-12-29T08:31:17;74.30;;;48.20;;
51286;SDS011;37364;46.974;18.916;2022-12-29T08:33:49;91.40;;;49.28;;
51286;SDS011;37364;46.974;18.916;2022-12-29T08:36:21;73.78;;;47.30;;
51286;SDS011;37364;46.974;18.916;2022-12-29T08:38:52;79.55;;;48.72;;
51286;SDS011;37364;46.974;18.916;2022-12-29T08:41:22;72.97;;;46.15;;
51286;SDS011;37364;46.974;18.916;2022-12-29T08:43:53;69.05;;;43.92;;
51286;SDS011;37364;46.974;18.916;2022-12-29T08:46:29;94.78;;;45.08;;
51286;SDS011;37364;46.974;18.916;2022-12-29T08:49:01;69.40;;;43.72;;
51286;SDS011;37364;46.974;18.916;2022-12-29T08:51:32;72.53;;;43.25;;
51286;SDS011;37364;46.974;18.916;2022-12-29T08:54:06;66.55;;;41.58;;
51286;SDS011;37364;46.974;18.916;2022-12-29T08:56:38;73.07;;;49.35;;
51286;SDS011;37364;46.974;18.916;2022-12-29T08:59:10;63.78;;;43.22;;
51286;SDS011;37364;46.974;18.916;2022-12-29T09:01:45;66.13;;;43.38;;
51286;SDS011;37364;46.974;18.916;2022-12-29T09:04:16;84.00;;;42.33;;
51286;SDS011;37364;46.974;18.916;2022-12-29T09:06:47;59.20;;;41.78;;
51286;SDS011;37364;46.974;18.916;2022-12-29T09:09:18;66.97;;;43.05;;
51286;SDS011;37364;46.974;18.916;2022-12-29T09:11:49;72.75;;;45.75;;
51286;SDS011;37364;46.974;18.916;2022-12-29T09:14:20;85.53;;;45.38;;
51286;SDS011;37364;46.974;18.916;2022-12-29T09:16:54;82.55;;;46.60;;
51286;SDS011;37364;46.974;18.916;2022-12-29T09:19:37;92.75;;;44.67;;
51286;SDS011;37364;46.974;18.916;2022-12-29T09:22:08;84.22;;;44.78;;
51286;SDS011;37364;46.974;18.916;2022-12-29T09:24:39;84.13;;;46.50;;
51286;SDS011;37364;46.974;18.916;2022-12-29T09:27:13;66.78;;;42.08;;
51286;SDS011;37364;46.974;18.916;2022-12-29T09:29:44;66.05;;;44.25;;
51286;SDS011;37364;46.974;18.916;2022-12-29T09:32:17;81.18;;;46.83;;
51286;SDS011;37364;46.974;18.916;2022-12-29T09:34:50;75.80;;;44.88;;
51286;SDS011;37364;46.974;18.916;2022-12-29T09:37:21;85.13;;;45.72;;
51286;SDS011;37364;46.974;18.916;2022-12-29T09:39:52;89.07;;;46.83;;
51286;SDS011;37364;46.974;18.916;2022-12-29T09:42:23;76.72;;;48.50;;
51286;SDS011;37364;46.974;18.916;2022-12-29T09:45:01;78.90;;;48.13;;
51286;SDS011;37364;46.974;18.916;2022-12-29T09:47:42;81.10;;;48.95;;
51286;SDS011;37364;46.974;18.916;2022-12-29T09:50:18;81.22;;;49.25;;
51286;SDS011;37364;46.974;18.916;2022-12-29T09:52:54;92.50;;;51.83;;
51286;SDS011;37364;46.974;18.916;2022-12-29T09:55:34;112.47;;;62.67;;
51286;SDS011;37364;46.974;18.916;2022-12-29T09:58:10;93.25;;;54.55;;
51286;SDS011;37364;46.974;18.916;2022-12-29T10:00:49;89.43;;;55.25;;
51286;SDS011;37364;46.974;18.916;2022-12-29T10:03:27;84.50;;;51.40;;
51286;SDS011;37364;46.974;18.916;2022-12-29T10:06:13;91.20;;;54.35;;
51286;SDS011;37364;46.974;18.916;2022-12-29T10:08:51;83.75;;;52.25;;
51286;SDS011;37364;46.974;18.916;2022-12-29T10:11:35;90.60;;;53.83;;
51286;SDS011;37364;46.974;18.916;2022-12-29T10:14:29;83.82;;;54.53;;
51286;SDS011;37364;46.974;18.916;2022-12-29T10:17:15;89.35;;;54.13;;
51286;SDS011;37364;46.974;18.916;2022-12-29T10:20:07;90.35;;;54.70;;
51286;SDS011;37364;46.974;18.916;2022-12-29T10:22:54;89.68;;;54.33;;
51286;SDS011;37364;46.974;18.916;2022-12-29T10:25:40;93.55;;;52.50;;
51286;SDS011;37364;46.974;18.916;2022-12-29T10:28:15;99.80;;;58.53;;
51286;SDS011;37364;46.974;18.916;2022-12-29T10:30:50;92.88;;;54.15;;
51286;SDS011;37364;46.974;18.916;2022-12-29T10:33:36;92.85;;;56.00;;
51286;SDS011;37364;46.974;18.916;2022-12-29T10:36:18;96.82;;;56.88;;
51286;SDS011;37364;46.974;18.916;2022-12-29T10:38:56;82.97;;;52.08;;
51286;SDS011;37364;46.974;18.916;2022-12-29T10:41:36;91.60;;;55.85;;
51286;SDS011;37364;46.974;18.916;2022-12-29T10:44:13;86.82;;;55.13;;
51286;SDS011;37364;46.974;18.916;2022-12-29T10:46:54;114.25;;;70.00;;
51286;SDS011;37364;46.974;18.916;2022-12-29T10:49:29;108.20;;;61.22;;
51286;SDS011;37364;46.974;18.916;2022-12-29T10:52:06;96.57;;;55.50;;
51286;SDS011;37364;46.974;18.916;2022-12-29T10:54:38;85.90;;;53.97;;
51286;SDS011;37364;46.974;18.916;2022-12-29T10:57:17;81.70;;;50.92;;
51286;SDS011;37364;46.974;18.916;2022-12-29T10:59:57;76.03;;;52.10;;
51286;SDS011;37364;46.974;18.916;2022-12-29T11:02:42;87.88;;;53.10;;
51286;SDS011;37364;46.974;18.916;2022-12-29T11:05:23;78.97;;;51.25;;
51286;SDS011;37364;46.974;18.916;2022-12-29T11:08:02;87.80;;;53.53;;
51286;SDS011;37364;46.974;18.916;2022-12-29T11:10:42;90.70;;;53.38;;
51286;SDS011;37364;46.974;18.916;2022-12-29T11:13:16;99.05;;;58.47;;
51286;SDS011;37364;46.974;18.916;2022-12-29T11:15:48;134.80;;;63.50;;
51286;SDS011;37364;46.974;18.916;2022-12-29T11:18:22;87.72;;;55.88;;
51286;SDS011;37364;46.974;18.916;2022-12-29T11:20:57;107.07;;;54.95;;
51286;SDS011;37364;46.974;18.916;2022-12-29T11:23:37;84.43;;;52.80;;
51286;SDS011;37364;46.974;18.916;2022-12-29T11:26:15;79.28;;;51.08;;
51286;SDS011;37364;46.974;18.916;2022-12-29T11:29:08;80.60;;;51.63;;
51286;SDS011;37364;46.974;18.916;2022-12-29T11:31:56;86.10;;;55.08;;
51286;SDS011;37364;46.974;18.916;2022-12-29T11:34:30;89.93;;;56.53;;
51286;SDS011;37364;46.974;18.916;2022-12-29T11:37:05;93.43;;;55.58;;
51286;SDS011;37364;46.974;18.916;2022-12-29T11:39:48;89.93;;;56.75;;
51286;SDS011;37364;46.974;18.916;2022-12-29T11:42:29;109.03;;;58.35;;
51286;SDS011;37364;46.974;18.916;2022-12-29T11:45:13;105.55;;;58.97;;
51286;SDS011;37364;46.974;18.916;2022-12-29T11:47:48;118.55;;;60.65;;
51286;SDS011;37364;46.974;18.916;2022-12-29T11:50:22;103.20;;;59.38;;
51286;SDS011;37364;46.974;18.916;2022-12-29T11:52:57;104.18;;;59.67;;
51286;SDS011;37364;46.974;18.916;2022-12-29T11:58:04;87.40;;;54.22;;
51286;SDS011;37364;46.974;18.916;2022-12-29T12:00:36;92.40;;;55.47;;
51286;SDS011;37364;46.974;18.916;2022-12-29T12:03:10;97.93;;;53.97;;
51286;SDS011;37364;46.974;18.916;2022-12-29T12:05:46;85.00;;;53.97;;
51286;SDS011;37364;46.974;18.916;2022-12-29T12:08:23;82.75;;;53.17;;
51286;SDS011;37364;46.974;18.916;2022-12-29T12:11:08;89.60;;;55.38;;
51286;SDS011;37364;46.974;18.916;2022-12-29T12:13:53;98.43;;;57.22;;
51286;SDS011;37364;46.974;18.916;2022-12-29T12:16:47;112.70;;;61.38;;
51286;SDS011;37364;46.974;18.916;2022-12-29T12:19:26;96.25;;;57.00;;
51286;SDS011;37364;46.974;18.916;2022-12-29T12:22:07;90.80;;;55.58;;
51286;SDS011;37364;46.974;18.916;2022-12-29T12:24:45;107.30;;;55.33;;
51286;SDS011;37364;46.974;18.916;2022-12-29T12:27:22;99.07;;;56.38;;
51286;SDS011;37364;46.974;18.916;2022-12-29T12:30:03;88.63;;;55.20;;
51286;SDS011;37364;46.974;18.916;2022-12-29T12:32:36;102.40;;;55.42;;
51286;SDS011;37364;46.974;18.916;2022-12-29T12:35:15;97.72;;;57.03;;
51286;SDS011;37364;46.974;18.916;2022-12-29T12:38:08;90.18;;;53.50;;
51286;SDS011;37364;46.974;18.916;2022-12-29T12:40:59;102.72;;;53.08;;
51286;SDS011;37364;46.974;18.916;2022-12-29T12:43:39;88.60;;;50.55;;
51286;SDS011;37364;46.974;18.916;2022-12-29T12:46:33;94.80;;;53.35;;
51286;SDS011;37364;46.974;18.916;2022-12-29T12:52:07;88.10;;;52.78;;
51286;SDS011;37364;46.974;18.916;2022-12-29T12:54:48;94.15;;;52.47;;
51286;SDS011;37364;46.974;18.916;2022-12-29T12:57:39;84.57;;;52.83;;
51286;SDS011;37364;46.974;18.916;2022-12-29T13:00:21;80.93;;;50.78;;
51286;SDS011;37364;46.974;18.916;2022-12-29T13:02:57;88.70;;;53.08;;
51286;SDS011;37364;46.974;18.916;2022-12-29T13:05:38;84.53;;;51.50;;
51286;SDS011;37364;46.974;18.916;2022-12-29T13:11:42;90.05;;;51.60;;
51286;SDS011;37364;46.974;18.916;2022-12-29T13:14:28;78.22;;;50.60;;
51286;SDS011;37364;46.974;18.916;2022-12-29T13:17:22;89.28;;;52.85;;
51286;SDS011;37364;46.974;18.916;2022-12-29T13:20:01;88.63;;;52.00;;
51286;SDS011;37364;46.974;18.916;2022-12-29T13:22:39;82.45;;;52.63;;
51286;SDS011;37364;46.974;18.916;2022-12-29T13:25:32;84.78;;;52.20;;
51286;SDS011;37364;46.974;18.916;2022-12-29T13:28:10;85.63;;;52.90;;
51286;SDS011;37364;46.974;18.916;2022-12-29T13:30:50;94.65;;;54.47;;
51286;SDS011;37364;46.974;18.916;2022-12-29T13:33:33;95.28;;;54.38;;
51286;SDS011;37364;46.974;18.916;2022-12-29T13:36:18;86.00;;;56.00;;
51286;SDS011;37364;46.974;18.916;2022-12-29T13:38:57;87.78;;;56.22;;
51286;SDS011;37364;46.974;18.916;2022-12-29T13:41:34;92.80;;;59.03;;
51286;SDS011;37364;46.974;18.916;2022-12-29T13:44:09;81.40;;;55.03;;
51286;SDS011;37364;46.974;18.916;2022-12-29T13:46:45;89.15;;;55.45;;
51286;SDS011;37364;46.974;18.916;2022-12-29T13:49:20;88.60;;;54.42;;
51286;SDS011;37364;46.974;18.916;2022-12-29T13:51:52;86.28;;;55.30;;
51286;SDS011;37364;46.974;18.916;2022-12-29T13:57:06;83.68;;;54.58;;
51286;SDS011;37364;46.974;18.916;2022-12-29T13:59:59;94.43;;;57.92;;
51286;SDS011;37364;46.974;18.916;2022-12-29T14:02:42;86.22;;;56.58;;
51286;SDS011;37364;46.974;18.916;2022-12-29T14:05:32;91.28;;;54.28;;
51286;SDS011;37364;46.974;18.916;2022-12-29T14:08:04;82.07;;;52.90;;
51286;SDS011;37364;46.974;18.916;2022-12-29T14:10:45;81.07;;;54.38;;
51286;SDS011;37364;46.974;18.916;2022-12-29T14:13:24;85.03;;;55.30;;
51286;SDS011;37364;46.974;18.916;2022-12-29T14:15:56;83.97;;;55.05;;
51286;SDS011;37364;46.974;18.916;2022-12-29T14:18:30;83.55;;;54.63;;
51286;SDS011;37364;46.974;18.916;2022-12-29T14:23:42;84.10;;;55.72;;
51286;SDS011;37364;46.974;18.916;2022-12-29T14:26:18;95.85;;;61.58;;
51286;SDS011;37364;46.974;18.916;2022-12-29T14:38:24;91.35;;;58.42;;
51286;SDS011;37364;46.974;18.916;2022-12-29T14:43:57;95.28;;;62.05;;
51286;SDS011;37364;46.974;18.916;2022-12-29T14:46:45;92.78;;;62.10;;
51286;SDS011;37364;46.974;18.916;2022-12-29T14:49:20;85.15;;;59.30;;
51286;SDS011;37364;46.974;18.916;2022-12-29T14:52:04;99.45;;;64.93;;
51286;SDS011;37364;46.974;18.916;2022-12-29T14:54:50;93.97;;;65.50;;
51286;SDS011;37364;46.974;18.916;2022-12-29T14:57:32;102.03;;;65.80;;
51286;SDS011;37364;46.974;18.916;2022-12-29T15:03:02;101.43;;;64.75;;
51286;SDS011;37364;46.974;18.916;2022-12-29T15:05:37;93.97;;;62.00;;
51286;SDS011;37364;46.974;18.916;2022-12-29T15:08:14;101.57;;;65.82;;
51286;SDS011;37364;46.974;18.916;2022-12-29T15:10:52;100.75;;;64.57;;
51286;SDS011;37364;46.974;18.916;2022-12-29T15:13:32;107.40;;;70.63;;
51286;SDS011;37364;46.974;18.916;2022-12-29T15:16:17;118.53;;;78.47;;
51286;SDS011;37364;46.974;18.916;2022-12-29T15:18:52;128.10;;;81.43;;
51286;SDS011;37364;46.974;18.916;2022-12-29T15:21:26;131.43;;;85.83;;
51286;SDS011;37364;46.974;18.916;2022-12-29T15:24:00;133.95;;;87.50;;
51286;SDS011;37364;46.974;18.916;2022-12-29T15:26:38;124.05;;;84.78;;
51286;SDS011;37364;46.974;18.916;2022-12-29T15:32:01;131.13;;;85.60;;
51286;SDS011;37364;46.974;18.916;2022-12-29T15:34:47;129.75;;;86.75;;
51286;SDS011;37364;46.974;18.916;2022-12-29T15:37:20;122.72;;;81.68;;
51286;SDS011;37364;46.974;18.916;2022-12-29T15:39:54;140.35;;;94.13;;
51286;SDS011;37364;46.974;18.916;2022-12-29T15:42:39;133.57;;;88.30;;
51286;SDS011;37364;46.974;18.916;2022-12-29T15:45:23;129.32;;;84.80;;
51286;SDS011;37364;46.974;18.916;2022-12-29T15:48:00;154.35;;;97.22;;